createdAt,value
2018-04-23T00:00:31.177Z,100386.18
2018-04-23T00:03:36.437Z,100383.05
2018-04-23T00:06:41.733Z,100382.63
2018-04-23T00:09:47.007Z,100388.87
2018-04-23T00:12:52.026Z,100384.91
2018-04-23T00:15:58.215Z,100379.69
2018-04-23T00:19:04.413Z,100380.02
2018-04-23T00:22:10.609Z,100368.70
2018-04-23T00:25:16.890Z,100350.13
2018-04-23T00:28:22.678Z,100340.55
2018-04-23T00:31:28.902Z,100340.80
2018-04-23T00:34:34.226Z,100326.52
2018-04-23T00:37:39.524Z,100316.90
2018-04-23T00:40:44.785Z,100328.38
2018-04-23T00:43:50.984Z,100306.35
2018-04-23T00:46:55.967Z,100309.13
2018-04-23T00:50:02.175Z,100312.91
2018-04-23T00:53:18.619Z,100323.05
2018-04-23T00:56:24.337Z,100326.34
2018-04-23T00:59:29.650Z,100326.20
2018-04-23T01:02:35.732Z,100328.14
2018-04-23T01:05:41.404Z,100329.30
2018-04-23T01:08:47.270Z,100329.56
2018-04-23T01:11:52.606Z,100319.95
2018-04-23T01:14:58.701Z,100314.69
2018-04-23T01:18:04.598Z,100318.83
2018-04-23T01:21:10.690Z,100323.35
2018-04-23T01:24:17.625Z,100320.11
2018-04-23T01:27:23.500Z,100312.23
2018-04-23T01:30:29.612Z,100312.16
2018-04-23T01:33:34.887Z,100307.26
2018-04-23T01:36:40.902Z,100315.28
2018-04-23T01:39:46.897Z,100311.68
2018-04-23T01:42:53.087Z,100308.95
2018-04-23T01:45:58.964Z,100300.63
2018-04-23T01:49:04.753Z,100302.18
2018-04-23T01:55:15.311Z,100289.31
2018-04-23T01:58:21.481Z,100285.24
2018-04-23T02:01:26.749Z,100288.03
2018-04-23T02:04:34.105Z,100292.20
2018-04-23T02:07:39.020Z,100299.78
2018-04-23T02:10:44.651Z,100309.89
2018-04-23T02:13:50.669Z,100320.56
2018-04-23T02:16:56.484Z,100319.84
2018-04-23T02:20:01.669Z,100322.43
2018-04-23T02:23:07.476Z,100321.34
2018-04-23T02:26:12.836Z,100315.52
2018-04-23T02:29:18.964Z,100320.41
2018-04-23T02:32:24.567Z,100324.38
2018-04-23T02:35:29.776Z,100328.20
2018-04-23T02:38:34.757Z,100335.52
2018-04-23T02:41:40.736Z,100334.19
2018-04-23T02:44:45.937Z,100326.70
2018-04-23T02:47:51.667Z,100319.67
2018-04-23T02:50:57.407Z,100314.45
2018-04-23T02:54:02.756Z,100305.33
2018-04-23T02:57:08.920Z,100293.26
2018-04-23T03:00:14.129Z,100299.19
2018-04-23T03:03:19.348Z,100301.71
2018-04-23T03:06:24.651Z,100308.00
2018-04-23T03:09:29.510Z,100305.78
2018-04-23T03:12:35.144Z,100303.09
2018-04-23T03:15:40.111Z,100300.86
2018-04-23T03:18:46.212Z,100295.23
2018-04-23T03:21:51.832Z,100300.75
2018-04-23T03:24:57.855Z,100304.16
2018-04-23T03:28:04.022Z,100302.30
2018-04-23T03:31:09.608Z,100305.70
2018-04-23T03:34:15.731Z,100297.14
2018-04-23T03:37:21.892Z,100304.05
2018-04-23T03:40:27.084Z,100297.59
2018-04-23T03:43:33.195Z,100294.55
2018-04-23T03:46:39.712Z,100287.23
2018-04-23T03:49:45.308Z,100288.11
2018-04-23T03:52:50.518Z,100288.52
2018-04-23T03:55:56.539Z,100288.98
2018-04-23T03:59:02.569Z,100279.84
2018-04-23T04:02:08.471Z,100284.91
2018-04-23T04:05:14.348Z,100282.11
2018-04-23T04:08:19.536Z,100291.06
2018-04-23T04:11:24.836Z,100304.22
2018-04-23T04:14:41.572Z,100292.08
2018-04-23T04:21:35.440Z,100295.58
2018-04-23T04:24:41.301Z,100301.90
2018-04-23T04:27:47.477Z,100302.16
2018-04-23T04:30:53.259Z,100305.86
2018-04-23T04:33:58.191Z,100305.75
2018-04-23T04:37:03.381Z,100309.88
2018-04-23T04:40:09.498Z,100316.61
2018-04-23T04:43:15.148Z,100313.77
2018-04-23T04:46:20.994Z,100312.77
2018-04-23T04:49:26.648Z,100310.97
2018-04-23T04:52:32.675Z,100311.73
2018-04-23T04:55:38.788Z,100314.55
2018-04-23T04:58:44.874Z,100331.68
2018-04-23T05:01:50.804Z,100330.17
2018-04-23T05:04:56.840Z,100322.73
2018-04-23T05:08:02.996Z,100330.37
2018-04-23T05:11:08.925Z,100327.32
2018-04-23T05:14:14.942Z,100328.94
2018-04-23T05:17:21.080Z,100329.72
2018-04-23T05:20:26.344Z,100337.41
2018-04-23T05:23:32.067Z,100333.89
2018-04-23T05:26:38.034Z,100337.55
2018-04-23T05:29:43.889Z,100337.84
2018-04-23T05:32:49.992Z,100342.49
2018-04-23T05:35:56.032Z,100335.44
2018-04-23T05:39:02.083Z,100347.30
2018-04-23T05:42:06.809Z,100342.75
2018-04-23T05:45:12.473Z,100347.34
2018-04-23T05:48:18.506Z,100348.85
2018-04-23T05:51:24.631Z,100348.69
2018-04-23T05:54:30.685Z,100355.80
2018-04-23T05:57:35.899Z,100358.63
2018-04-23T06:00:41.133Z,100372.19
2018-04-23T06:03:47.256Z,100372.08
2018-04-23T06:06:52.883Z,100375.78
2018-04-23T06:09:59.029Z,100381.61
2018-04-23T06:13:04.944Z,100387.47
2018-04-23T06:16:10.760Z,100398.38
2018-04-23T06:19:16.387Z,100401.98
2018-04-23T06:22:21.634Z,100404.41
2018-04-23T06:25:26.897Z,100400.34
2018-04-23T06:28:32.283Z,100406.36
2018-04-23T06:31:37.509Z,100403.47
2018-04-23T06:34:42.721Z,100410.53
2018-04-23T06:37:48.940Z,100409.24
2018-04-23T06:40:54.777Z,100415.89
2018-04-23T06:44:00.804Z,100420.25
2018-04-23T06:47:06.859Z,100434.58
2018-04-23T06:50:12.912Z,100435.59
2018-04-23T06:53:18.303Z,100447.39
2018-04-23T06:56:23.888Z,100443.30
2018-04-23T06:59:28.593Z,100453.88
2018-04-23T07:02:34.433Z,100457.05
2018-04-23T07:05:40.405Z,100456.41
2018-04-23T07:08:46.249Z,100455.59
2018-04-23T07:11:52.389Z,100465.52
2018-04-23T07:14:58.521Z,100472.81
2018-04-23T07:18:03.748Z,100470.99
2018-04-23T07:21:09.380Z,100476.98
2018-04-23T07:24:14.601Z,100483.39
2018-04-23T07:27:20.247Z,100486.39
2018-04-23T07:30:26.329Z,100484.63
2018-04-23T07:33:32.377Z,100491.73
2018-04-23T07:36:38.300Z,100482.73
2018-04-23T07:39:44.216Z,100495.86
2018-04-23T07:42:50.132Z,100496.16
2018-04-23T07:45:56.205Z,100508.04
2018-04-23T07:49:02.145Z,100505.32
2018-04-23T07:52:07.906Z,100508.20
2018-04-23T07:55:14.048Z,100513.87
2018-04-23T07:58:20.364Z,100524.52
2018-04-23T08:01:26.405Z,100523.50
2018-04-23T08:04:32.731Z,100528.67
2018-04-23T08:07:38.552Z,100530.68
2018-04-23T08:10:44.561Z,100536.80
2018-04-23T08:13:49.775Z,100555.31
2018-04-23T08:16:55.000Z,100549.26
2018-04-23T08:20:00.273Z,100555.31
2018-04-23T08:23:06.024Z,100556.14
2018-04-23T08:26:12.172Z,100558.37
2018-04-23T08:29:18.305Z,100559.14
2018-04-23T08:32:24.332Z,100568.08
2018-04-23T08:35:31.200Z,100563.38
2018-04-23T08:38:37.013Z,100567.26
2018-04-23T08:41:43.027Z,100575.38
2018-04-23T08:44:48.881Z,100585.26
2018-04-23T08:47:54.361Z,100589.14
2018-04-23T08:51:00.489Z,100586.50
2018-04-23T08:54:05.904Z,100585.20
2018-04-23T08:57:11.144Z,100596.91
2018-04-23T09:00:17.281Z,100599.19
2018-04-23T09:03:23.444Z,100601.06
2018-04-23T09:06:28.312Z,100608.48
2018-04-23T09:09:34.140Z,100615.06
2018-04-23T09:12:39.368Z,100610.94
2018-04-23T09:15:44.580Z,100617.52
2018-04-23T09:18:50.321Z,100621.92
2018-04-23T09:21:56.120Z,100625.14
2018-04-23T09:25:01.510Z,100635.20
2018-04-23T09:28:06.533Z,100629.20
2018-04-23T09:31:12.505Z,100634.48
2018-04-23T09:34:18.867Z,100637.13
2018-04-23T09:37:25.423Z,100638.47
2018-04-23T09:40:30.630Z,100633.36
2018-04-23T09:43:36.768Z,100635.01
2018-04-23T09:46:41.992Z,100639.19
2018-04-23T09:49:47.207Z,100635.48
2018-04-23T09:52:52.431Z,100636.04
2018-04-23T09:55:57.632Z,100641.30
2018-04-23T09:59:03.580Z,100652.17
2018-04-23T10:02:09.092Z,100651.66
2018-04-23T10:05:15.045Z,100653.97
2018-04-23T10:08:20.458Z,100659.37
2018-04-23T10:11:25.672Z,100663.80
2018-04-23T10:14:30.888Z,100670.16
2018-04-23T10:17:36.103Z,100676.33
2018-04-23T10:20:41.319Z,100691.39
2018-04-23T10:23:47.474Z,100686.11
2018-04-23T10:26:52.692Z,100690.64
2018-04-23T10:29:58.617Z,100687.56
2018-04-23T10:33:03.834Z,100689.94
2018-04-23T10:36:09.054Z,100690.41
2018-04-23T10:39:13.998Z,100687.65
2018-04-23T10:42:19.377Z,100687.77
2018-04-23T10:45:26.131Z,100696.22
2018-04-23T10:48:32.387Z,100693.36
2018-04-23T10:51:38.017Z,100684.35
2018-04-23T10:54:44.055Z,100696.96
2018-04-23T10:57:49.869Z,100695.86
2018-04-23T11:00:55.076Z,100698.97
2018-04-23T11:04:00.470Z,100700.63
2018-04-23T11:07:05.401Z,100699.46
2018-04-23T11:10:10.605Z,100705.41
2018-04-23T11:13:15.794Z,100700.06
2018-04-23T11:16:21.028Z,100701.77
2018-04-23T11:19:27.126Z,100704.36
2018-04-23T11:22:33.143Z,100703.39
2018-04-23T11:25:39.144Z,100707.39
2018-04-23T11:28:45.385Z,100706.10
2018-04-23T11:31:52.321Z,100713.59
2018-04-23T11:34:58.123Z,100712.30
2018-04-23T11:38:04.060Z,100718.77
2018-04-23T11:41:09.815Z,100718.02
2018-04-23T11:44:15.004Z,100723.37
2018-04-23T11:47:20.620Z,100720.66
2018-04-23T11:50:26.768Z,100715.48
2018-04-23T11:53:32.952Z,100719.53
2018-04-23T11:56:38.972Z,100715.53
2018-04-23T11:59:44.884Z,100716.91
2018-04-23T12:02:50.656Z,100721.30
2018-04-23T12:05:55.858Z,100716.85
2018-04-23T12:09:01.074Z,100720.26
2018-04-23T12:12:06.915Z,100727.02
2018-04-23T12:15:12.112Z,100731.58
2018-04-23T12:18:17.378Z,100735.86
2018-04-23T12:21:23.317Z,100737.08
2018-04-23T12:24:29.240Z,100740.86
2018-04-23T12:27:35.375Z,100742.72
2018-04-23T12:30:41.061Z,100743.02
2018-04-23T12:33:46.936Z,100740.72
2018-04-23T12:36:52.213Z,100741.70
2018-04-23T12:39:57.829Z,100736.81
2018-04-23T12:43:03.872Z,100732.21
2018-04-23T12:46:09.951Z,100743.56
2018-04-23T12:49:16.289Z,100740.67
2018-04-23T12:52:22.105Z,100749.64
2018-04-23T12:55:28.228Z,100737.20
2018-04-23T12:58:33.604Z,100753.70
2018-04-23T13:01:38.813Z,100746.80
2018-04-23T13:04:44.014Z,100748.63
2018-04-23T13:07:49.251Z,100754.64
2018-04-23T13:10:54.477Z,100742.38
2018-04-23T13:13:59.680Z,100750.16
2018-04-23T13:17:05.792Z,100748.39
2018-04-23T13:20:11.805Z,100744.56
2018-04-23T13:23:17.812Z,100737.96
2018-04-23T13:26:23.841Z,100734.66
2018-04-23T13:29:29.963Z,100734.12
2018-04-23T13:32:35.980Z,100742.15
2018-04-23T13:35:42.020Z,100739.61
2018-04-23T13:38:47.952Z,100748.69
2018-04-23T13:41:53.907Z,100737.44
2018-04-23T13:44:59.617Z,100733.19
2018-04-23T13:48:05.768Z,100729.30
2018-04-23T13:51:11.687Z,100731.22
2018-04-23T13:54:17.713Z,100727.08
2018-04-23T13:57:23.695Z,100726.94
2018-04-23T14:00:29.732Z,100724.45
2018-04-23T14:03:35.869Z,100732.27
2018-04-23T14:06:41.893Z,100734.50
2018-04-23T14:09:48.576Z,100736.62
2018-04-23T14:12:55.117Z,100735.70
2018-04-23T14:16:00.601Z,100733.61
2018-04-23T14:19:06.209Z,100736.09
2018-04-23T14:22:12.376Z,100741.05
2018-04-23T14:25:17.572Z,100737.40
2018-04-23T14:28:23.499Z,100734.48
2018-04-23T14:31:28.705Z,100738.39
2018-04-23T14:34:34.829Z,100750.67
2018-04-23T14:37:40.518Z,100743.44
2018-04-23T14:40:47.659Z,100741.94
2018-04-23T14:43:53.143Z,100741.17
2018-04-23T14:46:59.260Z,100754.97
2018-04-23T14:50:04.524Z,100747.30
2018-04-23T14:53:09.803Z,100740.14
2018-04-23T14:56:15.156Z,100740.73
2018-04-23T14:59:20.906Z,100745.98
2018-04-23T15:02:27.106Z,100748.70
2018-04-23T15:05:32.319Z,100746.98
2018-04-23T15:08:37.507Z,100758.13
2018-04-23T15:11:42.903Z,100752.05
2018-04-23T15:14:48.551Z,100755.42
2018-04-23T15:17:53.768Z,100751.76
2018-04-23T15:21:00.108Z,100750.81
2018-04-23T15:24:05.443Z,100754.83
2018-04-23T15:27:10.604Z,100749.16
2018-04-23T15:30:15.816Z,100760.55
2018-04-23T15:33:21.969Z,100759.45
2018-04-23T15:36:27.688Z,100763.77
2018-04-23T15:39:33.714Z,100770.36
2018-04-23T15:42:39.721Z,100766.95
2018-04-23T15:45:45.557Z,100775.62
2018-04-23T15:48:50.484Z,100778.50
2018-04-23T15:51:55.677Z,100778.21
2018-04-23T15:55:02.813Z,100780.39
2018-04-23T15:58:08.627Z,100788.30
2018-04-23T16:01:13.874Z,100778.42
2018-04-23T16:04:19.116Z,100778.72
2018-04-23T16:07:24.381Z,100779.16
2018-04-23T16:10:29.608Z,100783.75
2018-04-23T16:13:36.608Z,100787.05
2018-04-23T16:16:41.954Z,100789.20
2018-04-23T16:19:47.148Z,100779.47
2018-04-23T16:22:53.265Z,100781.61
2018-04-23T16:25:58.987Z,100787.55
2018-04-23T16:29:05.316Z,100788.75
2018-04-23T16:32:11.445Z,100786.59
2018-04-23T16:35:16.884Z,100787.84
2018-04-23T16:38:22.085Z,100791.06
2018-04-23T16:41:28.204Z,100791.61
2018-04-23T16:44:33.414Z,100798.14
2018-04-23T16:47:38.640Z,100799.41
2018-04-23T16:50:43.876Z,100810.56
2018-04-23T16:53:49.106Z,100810.31
2018-04-23T16:56:55.336Z,100816.27
2018-04-23T17:00:01.307Z,100810.66
2018-04-23T17:03:06.492Z,100815.75
2018-04-23T17:06:11.772Z,100824.06
2018-04-23T17:09:17.914Z,100817.89
2018-04-23T17:12:23.204Z,100816.14
2018-04-23T17:15:29.258Z,100821.30
2018-04-23T17:18:35.455Z,100823.13
2018-04-23T17:21:41.668Z,100829.87
2018-04-23T17:24:46.576Z,100826.81
2018-04-23T17:27:51.788Z,100838.61
2018-04-23T17:30:57.516Z,100838.91
2018-04-23T17:34:04.369Z,100848.79
2018-04-23T17:37:09.272Z,100849.32
2018-04-23T17:40:15.662Z,100850.05
2018-04-23T17:43:21.084Z,100852.84
2018-04-23T17:46:26.041Z,100860.64
2018-04-23T17:49:32.152Z,100860.02
2018-04-23T17:52:37.786Z,100859.91
2018-04-23T17:55:42.755Z,100861.71
2018-04-23T17:58:47.988Z,100863.31
2018-04-23T18:01:53.359Z,100857.09
2018-04-23T18:04:58.316Z,100864.19
2018-04-23T18:08:04.280Z,100860.09
2018-04-23T18:11:10.119Z,100869.88
2018-04-23T18:14:15.957Z,100876.23
2018-04-23T18:17:20.992Z,100878.67
2018-04-23T18:20:25.932Z,100878.19
2018-04-23T18:23:31.476Z,100877.70
2018-04-23T18:26:37.455Z,100883.66
2018-04-23T18:29:42.402Z,100881.42
2018-04-23T18:32:47.293Z,100877.93
2018-04-23T18:35:52.885Z,100877.28
2018-04-23T18:38:57.808Z,100879.42
2018-04-23T18:42:02.747Z,100879.05
2018-04-23T18:45:08.178Z,100894.18
2018-04-23T18:48:14.052Z,100903.19
2018-04-23T18:51:19.027Z,100902.73
2018-04-23T18:54:23.955Z,100904.38
2018-04-23T18:57:29.960Z,100914.00
2018-04-23T19:00:35.318Z,100916.92
2018-04-23T19:03:41.157Z,100915.75
2018-04-23T19:06:46.081Z,100923.21
2018-04-23T19:09:51.670Z,100922.40
2018-04-23T19:12:56.876Z,100927.91
2018-04-23T19:16:02.837Z,100917.31
2018-04-23T19:19:09.004Z,100920.23
2018-04-23T19:22:14.481Z,100928.41
2018-04-23T19:25:21.160Z,100928.16
2018-04-23T19:28:27.024Z,100932.39
2018-04-23T19:31:32.002Z,100929.41
2018-04-23T19:34:37.857Z,100933.81
2018-04-23T19:37:43.256Z,100939.66
2018-04-23T19:40:49.360Z,100934.97
2018-04-23T19:43:55.016Z,100931.31
2018-04-23T19:47:00.923Z,100936.13
2018-04-23T19:50:05.273Z,100944.20
2018-04-23T19:53:11.179Z,100939.67
2018-04-23T19:56:17.287Z,100942.37
2018-04-23T19:59:22.212Z,100942.19
2018-04-23T20:02:27.653Z,100933.95
2018-04-23T20:05:32.560Z,100932.77
2018-04-23T20:08:37.964Z,100932.33
2018-04-23T20:11:43.771Z,100935.66
2018-04-23T20:14:49.128Z,100923.88
2018-04-23T20:17:53.721Z,100919.95
2018-04-23T20:20:59.398Z,100918.63
2018-04-23T20:24:05.301Z,100922.70
2018-04-23T20:27:10.898Z,100921.23
2018-04-23T20:30:16.735Z,100927.02
2018-04-23T20:33:22.623Z,100930.22
2018-04-23T20:36:28.606Z,100933.88
2018-04-23T20:39:33.203Z,100934.94
2018-04-23T20:42:38.628Z,100929.19
2018-04-23T20:45:44.077Z,100927.59
2018-04-23T20:48:49.000Z,100929.20
2018-04-23T20:51:54.192Z,100933.66
2018-04-23T20:54:59.559Z,100939.80
2018-04-23T20:58:04.425Z,100935.27
2018-04-23T21:01:09.221Z,100934.23
2018-04-23T21:04:15.234Z,100932.84
2018-04-23T21:07:20.857Z,100935.28
2018-04-23T21:10:27.051Z,100932.48
2018-04-23T21:13:32.584Z,100935.25
2018-04-23T21:16:37.788Z,100932.31
2018-04-23T21:19:44.155Z,100937.09
2018-04-23T21:22:49.480Z,100924.61
2018-04-23T21:25:55.440Z,100935.37
2018-04-23T21:29:01.036Z,100932.21
2018-04-23T21:32:06.951Z,100926.70
2018-04-23T21:35:13.716Z,100934.15
2018-04-23T21:38:19.803Z,100939.48
2018-04-23T21:41:24.990Z,100932.66
2018-04-23T21:44:30.392Z,100933.70
2018-04-23T21:47:37.542Z,100929.98
2018-04-23T21:50:42.489Z,100927.48
2018-04-23T21:53:47.420Z,100924.54
2018-04-23T21:56:52.996Z,100930.91
2018-04-23T21:59:57.907Z,100926.81
2018-04-23T22:03:03.356Z,100921.44
2018-04-23T22:06:09.192Z,100919.64
2018-04-23T22:09:15.084Z,100923.58
2018-04-23T22:12:20.623Z,100915.51
2018-04-23T22:15:25.536Z,100916.86
2018-04-23T22:18:30.941Z,100918.82
2018-04-23T22:21:36.547Z,100915.58
2018-04-23T22:24:41.456Z,100924.05
2018-04-23T22:27:46.381Z,100924.11
2018-04-23T22:30:51.804Z,100931.80
2018-04-23T22:33:56.752Z,100927.61
2018-04-23T22:37:02.644Z,100919.44
2018-04-23T22:40:07.627Z,100924.08
2018-04-23T22:43:12.580Z,100919.63
2018-04-23T22:46:17.762Z,100917.59
2018-04-23T22:49:22.680Z,100915.53
2018-04-23T22:52:27.876Z,100918.48
2018-04-23T22:55:32.822Z,100917.59
2018-04-23T22:58:37.740Z,100920.25
2018-04-23T23:01:42.853Z,100914.32
2018-04-23T23:04:48.754Z,100919.41
2018-04-23T23:07:54.583Z,100913.61
2018-04-23T23:10:59.772Z,100912.04
2018-04-23T23:14:05.215Z,100909.48
2018-04-23T23:17:10.844Z,100908.03
2018-04-23T23:20:16.875Z,100904.81
2018-04-23T23:23:22.716Z,100900.45
2018-04-23T23:26:28.326Z,100893.44
2018-04-23T23:29:33.521Z,100893.88
2018-04-23T23:32:38.744Z,100888.78
2018-04-23T23:35:45.536Z,100893.30
2018-04-23T23:38:50.905Z,100882.80
2018-04-23T23:41:57.008Z,100871.84
2018-04-23T23:45:02.653Z,100867.70
2018-04-23T23:48:08.540Z,100860.41
2018-04-23T23:51:13.745Z,100856.50
2018-04-23T23:54:18.993Z,100856.53
2018-04-23T23:57:24.173Z,100856.61
